Tiempo atmosférico en la estación meteorológica de Abia De Obispalia, Cuenca (1020 m.)



Fecha
DESCASC
Temp. máxima en grados centígrados (hora)
DESCASC
Temp. mínima en grados centígrados (hora)
DESCASC
Temp. media en grados centígrados
DESCASC
Racha de viento máxima en m/sg (hora)
DESCASC
Velocidad máxima media en intervalos de 10 minutos(hora)
DESCASC
Precipitaciones diarias en mm
DESCASC
Precipitaciones de 00:00 a 06:00 en mm
DESCASC
Precipitaciones de 06:00 a 12:00 en mm
DESCASC
Precipitaciones de 12:00 a 18:00 en mm
DESCASC
Precipitaciones de 18:00 a 24:00 en mm
DESCASC
21-08-2019 25.8 (15:40) 16 (00:00) 20.9 10.56 (22:00) 6.67 (19:40) 1 0.4 0.2 0.2 0.2
20-08-2019 31.1 (16:20) 16.8 (00:00) 23.9 11.94 (20:00) 7.78 (20:20) 0.8 0 0 0 0.8
26-07-2019 31.3 (16:40) 17.8 (00:00) 24.5 10.83 (16:10) 5.28 (15:50) 0.4 0.4 0 0 0
23-08-2019 30.6 (16:20) 13.4 (00:00) 22 8.89 (23:20) 6.39 (23:20) 0.2 0 0.2 0 0
22-08-2019 29.7 (16:00) 10.2 (00:00) 20 8.33 (23:20) 5.28 (23:30) 0.2 0 0.2 0 0
10-08-2019 31.8 (16:30) 13.8 (00:00) 22.8 9.17 (17:40) 4.44 (15:10) 0 0 0 0 0
24-08-2019 32.8 (18:20) 12.7 (00:00) 22.7 11.39 (21:50) 6.39 (22:00) 0 0 0 0 0
19-08-2019 32.6 (17:20) 13.3 (00:00) 22.9 9.17 (16:20) 6.11 (22:10) 0 0 0 0 0
18-08-2019 34.8 (16:30) 14.9 (00:00) 24.8 11.39 (19:10) 5.28 (16:40) 0 0 0 0 0
17-08-2019 35.4 (18:10) 14.6 (00:00) 25 9.17 (00:10) 6.11 (00:30) 0 0 0 0 0
16-08-2019 34.5 (18:20) 18.2 (00:00) 26.4 9.72 (00:30) 6.39 (00:30) 0 0 0 0 0
15-08-2019 34.4 (18:00) 13.7 (00:00) 24.1 9.17 (23:59) 6.11 (23:59) 0 0 0 0 0
14-08-2019 31.7 (17:00) 12.4 (00:00) 22.1 8.33 (17:30) 4.17 (17:30) 0 0 0 0 0
13-08-2019 29.6 (17:10) 13.8 (00:00) 21.7 8.89 (00:50) 5.28 (00:50) 0 0 0 0 0
12-08-2019 28.2 (16:40) 12.2 (00:00) 20.2 9.17 (10:20) 5 (11:40) 0 0 0 0 0
11-08-2019 30.5 (17:00) 15 (00:00) 22.8 10.83 (16:00) 5 (19:00) 0 0 0 0 0
09-08-2019 33 (17:20) 14.6 (00:00) 23.8 11.11 (19:10) 4.72 (12:50) 0 0 0 0 0
08-08-2019 33 (18:20) 13 (00:00) 23 8.33 (18:00) 4.17 (16:40) 0 0 0 0 0
07-08-2019 29.4 (15:00) 15.2 (00:00) 22.3 9.72 (17:40) 4.72 (15:30) 0 0 0 0 0
06-08-2019 34.8 (17:40) 14.2 (00:00) 24.5 10.83 (18:50) 4.44 (18:20) 0 0 0 0 0
05-08-2019 35.2 (17:40) 13.9 (00:00) 24.6 8.33 (16:50) 5 (02:10) 0 0 0 0 0
04-08-2019 34.7 (17:40) 14.8 (00:00) 24.8 9.44 (00:30) 6.67 (00:30) 0 0 0 0 0
03-08-2019 34.5 (17:30) 18 (00:00) 26.3 8.89 (16:20) 5.83 (00:10) 0 0 0 0 0
02-08-2019 34.4 (18:20) 13.1 (00:00) 23.8 8.06 (23:59) 5.83 (23:59) 0 0 0 0 0
01-08-2019 33.2 (17:30) 15.4 (00:00) 24.3 11.39 (00:50) 7.22 (00:30) 0 0 0 0 0
31-07-2019 29.2 (17:20) 16.4 (00:00) 22.8 12.5 (11:40) 8.06 (10:20) 0 0 0 0 0
30-07-2019 32 (18:00) 12.6 (00:00) 22.3 8.06 (13:10) 4.44 (23:40) 0 0 0 0 0
29-07-2019 31.6 (18:30) 11.6 (00:00) 21.6 9.17 (18:40) 4.44 (18:40) 0 0 0 0 0
28-07-2019 29 (18:00) 9.4 (00:00) 19.2 8.06 (17:30) 4.17 (12:00) 0 0 0 0 0
27-07-2019 26.2 (17:30) 12.1 (00:00) 19.2 13.33 (18:00) 6.67 (18:30) 0 0 0 0 0

Gráficas

Temp. máximas Temp. mínimas Temp. medias Precipitaciones Rachas de viento máximas Velocidades máximas media en intervalos de 10 minutos

Datos horarios

Fecha y hora oficial Temperatura (ºC) Velocidad del viento (km/h) Dirección del viento Racha (km/h) Dirección de racha Precipitación (mm) Presión (hPa) Tendencia (hPa) Humedad (%)
2019-08-24 23:00:00 21.7 16 Sudeste 34 Sur 0 -- -- 47
2019-08-24 22:00:00 23.2 23 Sur 41 Sudeste 0 -- -- 41
2019-08-24 21:00:00 25.3 4 Oeste 14 Noroeste 0 -- -- 30
2019-08-24 20:00:00 31.3 4 Norte 15 Norte 0 -- -- 22
2019-08-24 19:00:00 32.3 7 Norte 21 Norte 0 -- -- 20
2019-08-24 18:00:00 32.6 8 Sudeste 23 Noroeste 0 -- -- 20
2019-08-24 17:00:00 32.4 9 Noroeste 23 Norte 0 -- -- 20
2019-08-24 16:00:00 31.4 11 Noroeste 24 Noroeste 0 -- -- 22
2019-08-24 15:00:00 30.5 9 Sur 18 Sudeste 0 -- -- 27
2019-08-24 14:00:00 29.5 8 Oeste 20 Sudeste 0 -- -- 27
2019-08-24 13:00:00 28.2 6 Noroeste 18 Sur 0 -- -- 30
2019-08-24 12:00:00 26.6 11 Sur 19 Oeste 0 -- -- 31
2019-08-24 11:00:00 24.4 9 Sudeste 17 Sudeste 0 -- -- 37
2019-08-24 10:00:00 21.6 6 Sudeste 12 Sudeste 0 -- -- 41
2019-08-24 09:00:00 16.5 0 Calma 8 Este 0 -- -- 61
2019-08-24 08:00:00 12.9 3 Este 10 Este 0 -- -- 70
2019-08-24 07:00:00 13.2 2 Noroeste 5 Norte 0 -- -- 69
2019-08-24 06:00:00 13.1 0 Calma 4 Nordeste 0 -- -- 70
2019-08-24 05:00:00 15.1 0 Calma 6 Noroeste 0 -- -- 63
2019-08-24 04:00:00 15.9 0 Calma 6 Norte 0 -- -- 59
2019-08-24 03:00:00 17.3 6 Sudeste 22 Sudeste 0 -- -- 54
2019-08-24 02:00:00 17.6 9 Sudeste 20 Sudeste 0 -- -- 51
2019-08-24 01:00:00 18.7 13 Sudeste 23 Sudeste 0 -- -- 46
2019-08-24 00:00:00 20.1 13 Sudeste 32 Sur 0 -- -- 41
2019-08-23 23:00:00 21.5 14 Sur 19 Sur 0 -- -- 32
2019-08-23 22:00:00 21.6 13 Sur 17 Sur 0 -- -- 31
2019-08-23 21:00:00 23 10 Sur 19 Sur 0 -- -- 29
2019-08-23 20:00:00 27 12 Sur 23 Sur 0 -- -- 22
2019-08-23 19:00:00 28.7 14 Sur 23 Sur 0 -- -- 22
2019-08-23 18:00:00 30.3 11 Sudoeste 22 Sur 0 -- -- 22
2019-08-23 17:00:00 30 12 Sur 24 Sur 0 -- -- 25
2019-08-23 16:00:00 30.1 8 Sudoeste 20 Sudoeste 0 -- -- 27
2019-08-23 15:00:00 29 11 Sudoeste 24 Sudoeste 0 -- -- 28
2019-08-23 14:00:00 28.8 11 Sudoeste 31 Sudoeste 0 -- -- 29
2019-08-23 13:00:00 27.4 9 Sur 24 Sudeste 0 -- -- 32
2019-08-23 12:00:00 26.3 9 Sur 22 Sudeste 0 -- -- 33
2019-08-23 11:00:00 23.8 13 Sudeste 23 Sur 0 -- -- 36
2019-08-23 10:00:00 21.2 9 Sudeste 22 Este 0 -- -- 46
2019-08-23 09:00:00 16.6 3 Este 8 Este 0 -- -- 58
2019-08-23 08:00:00 13.7 0 Calma 5 Nordeste 0 -- -- 65
2019-08-23 07:00:00 14 0 Calma 8 Sudeste 0.2 -- -- 62
2019-08-23 06:00:00 14.9 2 Este 16 Sudeste 0 -- -- 58
2019-08-23 05:00:00 16 4 Sudeste 21 Sudeste 0 -- -- 59
2019-08-23 04:00:00 16.5 13 Sudeste 23 Sudeste 0 -- -- 60
2019-08-23 03:00:00 16.7 10 Sudeste 17 Sudeste 0 -- -- 60
2019-08-23 02:00:00 17.5 8 Sudeste 17 Sudeste 0 -- -- 58
2019-08-23 01:00:00 18.3 10 Sudeste 21 Sudeste 0 -- -- 58
2019-08-23 00:00:00 19.6 12 Sudeste 30 Sudeste 0 -- -- 54
2019-08-22 23:00:00 20.7 13 Sur 16 Sur 0 -- -- 48
2019-08-22 22:00:00 21.2 10 Sur 15 Sur 0 -- -- 47
2019-08-22 21:00:00 23.4 13 Sur 21 Sur 0 -- -- 42
2019-08-22 20:00:00 26 15 Sur 22 Sur 0 -- -- 38
2019-08-22 19:00:00 28.3 9 Sur 22 Sur 0 -- -- 34
2019-08-22 18:00:00 29.3 9 Sur 20 Sur 0 -- -- 32
2019-08-22 17:00:00 29.7 8 Sur 24 Oeste 0 -- -- 31
2019-08-22 16:00:00 29.7 8 Sur 18 Sudeste 0 -- -- 31
2019-08-22 15:00:00 29.1 10 Sudoeste 21 Oeste 0 -- -- 32
2019-08-22 14:00:00 28.1 7 Noroeste 17 Oeste 0 -- -- 33
2019-08-22 13:00:00 26.7 6 Noroeste 18 Oeste 0 -- -- 37
2019-08-22 12:00:00 25.1 6 Sudeste 17 Sudeste 0 -- -- 39
2019-08-22 11:00:00 22.8 10 Sudeste 21 Sudeste 0 -- -- 48
2019-08-22 10:00:00 19.6 8 Sudeste 18 Este 0 -- -- 60
2019-08-22 09:00:00 14.9 0 Calma 6 Sudeste 0 -- -- 78
2019-08-22 08:00:00 11 4 Sudeste 6 Sudeste 0.2 -- -- 89
2019-08-22 07:00:00 10.4 0 Calma 5 Sur 0 -- -- 90
2019-08-22 06:00:00 10.5 0 Calma 2 Noroeste 0 -- -- 90
2019-08-22 05:00:00 10.9 2 Sur 4 Sudeste 0 -- -- 90
2019-08-22 04:00:00 11.1 0 Calma 5 Sur 0 -- -- 90
2019-08-22 03:00:00 11.5 0 Calma 3 Sudoeste 0 -- -- 88
2019-08-22 02:00:00 13.3 2 Sudeste 10 Sur 0 -- -- 80
2019-08-22 01:00:00 14.3 4 Sur 10 Sudoeste 0 -- -- 77
2019-08-22 00:00:00 16.7 6 Norte 15 Nordeste 0 -- -- 66
2019-08-21 23:00:00 18 10 Noroeste 35 Sudeste 0 -- -- 59
2019-08-21 22:00:00 18.2 21 Este 38 Este 0.2 -- -- 62
2019-08-21 21:00:00 19.4 10 Sudeste 24 Sudeste 0 -- -- 72
2019-08-21 20:00:00 20.2 18 Sur 33 Sudeste 0 -- -- 69
2019-08-21 19:00:00 21.8 18 Sur 28 Sudeste 0 -- -- 68
2019-08-21 18:00:00 23.4 18 Sur 34 Sur 0 -- -- 62
2019-08-21 17:00:00 24.1 22 Sur 33 Sur 0 -- -- 59
2019-08-21 16:00:00 25 17 Sur 28 Sur 0 -- -- 56
2019-08-21 15:00:00 24.2 11 Sur 25 Sur 0 -- -- 60
2019-08-21 14:00:00 22.4 17 Sur 25 Sur 0 -- -- 65
2019-08-21 13:00:00 22.2 11 Sur 25 Sudeste 0.2 -- -- 70
2019-08-21 12:00:00 21.9 17 Sur 27 Sudeste 0 -- -- 70
2019-08-21 11:00:00 20.2 12 Sudeste 28 Sudeste 0 -- -- 79
2019-08-21 10:00:00 18.5 16 Sudeste 30 Sudeste 0 -- -- 84
2019-08-21 09:00:00 17.4 17 Sudeste 33 Este 0.2 -- -- 86
2019-08-21 08:00:00 16.7 9 Sudeste 24 Sudeste 0 -- -- 88
2019-08-21 07:00:00 16.3 13 Sudeste 24 Sudeste 0 -- -- 88
2019-08-21 06:00:00 16.7 18 Sudeste 36 Sudeste 0 -- -- 86
2019-08-21 05:00:00 16.7 15 Sudeste 27 Sudeste 0.2 -- -- 85
2019-08-21 04:00:00 16.3 12 Sudeste 31 Este 0 -- -- 85
2019-08-21 03:00:00 16.5 15 Sudeste 28 Sudeste 0 -- -- 84
2019-08-21 02:00:00 16.2 16 Sudeste 29 Sudeste 0.2 -- -- 84
2019-08-21 01:00:00 16.4 17 Sudeste 33 Sudeste 0 -- -- 85
2019-08-21 00:00:00 16.8 19 Sudeste 30 Sudeste 0.2 -- -- 86
2019-08-20 23:00:00 17.4 14 Sudeste 26 Sudeste 0.2 -- -- 87
2019-08-20 22:00:00 18.1 16 Sudeste 30 Sudeste 0.2 -- -- 89
2019-08-20 21:00:00 18.3 15 Sudeste 42 Sudeste 0.2 -- -- 89
2019-08-20 20:00:00 22.8 24 Sudeste 43 Sudeste 0 -- -- 64
2019-08-20 19:00:00 27.6 4 Norte 14 Norte 0 -- -- 39
2019-08-20 18:00:00 27.8 7 Norte 21 Sur 0 -- -- 40
2019-08-20 17:00:00 29 6 Noroeste 21 Noroeste 0 -- -- 33
2019-08-20 16:00:00 30.7 8 Sudoeste 21 Sur 0 -- -- 30
2019-08-20 15:00:00 29 9 Sur 28 Sur 0 -- -- 36
2019-08-20 14:00:00 28.8 7 Sudoeste 24 Sur 0 -- -- 37
2019-08-20 13:00:00 26.2 9 Sur 22 Sur 0 -- -- 51
2019-08-20 12:00:00 25 11 Sur 18 Sudeste 0 -- -- 56
2019-08-20 11:00:00 23 9 Sudeste 21 Sudeste 0 -- -- 65
2019-08-20 10:00:00 20.1 11 Sudeste 23 Sudeste 0 -- -- 79
2019-08-20 09:00:00 18.9 9 Sudeste 21 Sudeste 0 -- -- 85
2019-08-20 08:00:00 18.4 12 Sudeste 23 Sudeste 0 -- -- 87
2019-08-20 07:00:00 18.1 5 Sudeste 17 Sudeste 0 -- -- 88
2019-08-20 06:00:00 18.5 11 Sudeste 28 Sudeste 0 -- -- 86
2019-08-20 05:00:00 18.8 14 Sudeste 27 Sudeste 0 -- -- 85
2019-08-20 04:00:00 18.9 12 Sudeste 31 Sur 0 -- -- 84
2019-08-20 03:00:00 19.5 18 Sudeste 32 Sudeste 0 -- -- 82
2019-08-20 02:00:00 20.1 17 Sudeste 36 Sudeste 0 -- -- 82
2019-08-20 01:00:00 20.6 20 Sudeste 30 Sudeste 0 -- -- 81
2019-08-20 00:00:00 21.8 13 Sudeste 31 Sur 0 -- -- 77
2019-08-19 23:00:00 23.2 12 Sur 30 Sur 0 -- -- 67
2019-08-19 22:00:00 25.6 17 Sur 29 Sur 0 -- -- 48
2019-08-19 21:00:00 28.5 4 Sudoeste 27 Oeste 0 -- -- 25
2019-08-19 20:00:00 29.9 10 Oeste 26 Sudoeste 0 -- -- 24
2019-08-19 19:00:00 32.4 11 Sudoeste 29 Oeste 0 -- -- 20
2019-08-19 18:00:00 32.1 15 Oeste 31 Sur 0 -- -- 20
2019-08-19 17:00:00 32.5 15 Sudoeste 33 Sur 0 -- -- 21
2019-08-19 16:00:00 31.5 12 Sur 32 Sur 0 -- -- 23
2019-08-19 15:00:00 31.4 15 Sudoeste 31 Sudoeste 0 -- -- 22
2019-08-19 14:00:00 31 10 Sur 26 Sudoeste 0 -- -- 27
2019-08-19 13:00:00 29.5 10 Oeste 25 Sur 0 -- -- 27
2019-08-19 12:00:00 28.4 9 Oeste 23 Sudoeste 0 -- -- 32
2019-08-19 11:00:00 27 8 Sudoeste 15 Sudoeste 0 -- -- 39
2019-08-19 10:00:00 23.1 0 Calma 4 Norte 0 -- -- 49
2019-08-19 09:00:00 18 2 Nordeste 5 Sudeste 0 -- -- 61
2019-08-19 08:00:00 13.5 -- -- -- -- 0 -- -- 62
2019-08-19 07:00:00 13.4 0 Calma 3 Noroeste 0 -- -- 57
2019-08-19 06:00:00 14.7 0 Calma 6 Sudoeste 0 -- -- 51
2019-08-19 05:00:00 15 3 Sur 7 Sudoeste 0 -- -- 49
2019-08-19 04:00:00 15.9 5 Sudoeste 8 Sudoeste 0 -- -- 45
2019-08-19 03:00:00 16.7 2 Oeste 5 Sudoeste 0 -- -- 43
2019-08-19 02:00:00 17 3 Sudoeste 7 Oeste 0 -- -- 42
2019-08-19 01:00:00 18.5 3 Oeste 11 Oeste 0 -- -- 36
2019-08-19 00:00:00 21.2 2 Oeste 10 Noroeste 0 -- -- 31
2019-08-18 23:00:00 21.4 3 Noroeste 8 Noroeste 0 -- -- 30
2019-08-18 22:00:00 26.1 5 Noroeste 17 Noroeste 0 -- -- 23
2019-08-18 21:00:00 29.1 10 Oeste 26 Oeste 0 -- -- 18
2019-08-18 20:00:00 32.2 15 Noroeste 41 Noroeste 0 -- -- 18
2019-08-18 19:00:00 33.5 17 Oeste 34 Oeste 0 -- -- 17
2019-08-18 18:00:00 32.8 16 Sudoeste 35 Sudoeste 0 -- -- 19
2019-08-18 17:00:00 33.6 10 Oeste 39 Oeste 0 -- -- 19
2019-08-18 16:00:00 34.1 13 Oeste 35 Oeste 0 -- -- 18
2019-08-18 15:00:00 33.6 14 Sudoeste 29 Sudoeste 0 -- -- 20
2019-08-18 14:00:00 32.5 13 Oeste 32 Oeste 0 -- -- 22
2019-08-18 13:00:00 31.6 13 Oeste 24 Oeste 0 -- -- 23
2019-08-18 12:00:00 30.8 8 Sudoeste 16 Sudoeste 0 -- -- 25
2019-08-18 11:00:00 28.3 5 Sudoeste 12 Sudoeste 0 -- -- 34
2019-08-18 10:00:00 24.8 5 Sur 10 Sur 0 -- -- 41
2019-08-18 09:00:00 19.2 0 Calma 4 Nordeste 0 -- -- 71
2019-08-18 08:00:00 15 0 Calma 3 Sur 0 -- -- 81
2019-08-18 07:00:00 16.3 0 Calma 5 Este 0 -- -- 72
2019-08-18 06:00:00 16.9 2 Sudeste 5 Noroeste 0 -- -- 69
2019-08-18 05:00:00 18.2 3 Noroeste 7 Este 0 -- -- 65
2019-08-18 04:00:00 19.5 0 Calma 10 Sur 0 -- -- 58
2019-08-18 03:00:00 22.7 6 Sudeste 22 Sur 0 -- -- 49
2019-08-18 02:00:00 24 15 Sur 23 Sur 0 -- -- 45
2019-08-18 01:00:00 20.4 2 Sur 8 Sur 0 -- -- 37
2019-08-18 00:00:00 20.2 0 Calma 6 Sudoeste 0 -- -- 37
2019-08-17 23:00:00 24 4 Sudoeste 15 Noroeste 0 -- -- 30
2019-08-17 22:00:00 24.2 9 Sur 14 Sur 0 -- -- 29
2019-08-17 21:00:00 29.4 7 Sur 19 Sudoeste 0 -- -- 23
2019-08-17 20:00:00 32.9 11 Sudoeste 27 Oeste 0 -- -- 20
2019-08-17 19:00:00 34.8 8 Sudoeste 23 Noroeste 0 -- -- 19
2019-08-17 18:00:00 35.3 12 Oeste 24 Oeste 0 -- -- 19
2019-08-17 17:00:00 35 14 Sudoeste 33 Sudoeste 0 -- -- 19
2019-08-17 16:00:00 34.9 12 Oeste 26 Oeste 0 -- -- 18
2019-08-17 15:00:00 34.2 13 Oeste 28 Noroeste 0 -- -- 21
2019-08-17 14:00:00 33.6 9 Sudoeste 26 Noroeste 0 -- -- 23
2019-08-17 13:00:00 32.9 7 Oeste 22 Sudoeste 0 -- -- 24
2019-08-17 12:00:00 30.9 11 Sudoeste 23 Sur 0 -- -- 29
2019-08-17 11:00:00 28.8 6 Sudoeste 12 Sur 0 -- -- 33
2019-08-17 10:00:00 24.7 4 Sur 9 Sur 0 -- -- 43
2019-08-17 09:00:00 19.5 0 Calma 6 Sur 0 -- -- 76
2019-08-17 08:00:00 14.7 0 Calma 3 Norte 0 -- -- 89
2019-08-17 07:00:00 14.8 0 Calma 4 Noroeste 0 -- -- 86
2019-08-17 06:00:00 15.9 0 Calma 4 Noroeste 0 -- -- 85
2019-08-17 05:00:00 17.8 0 Calma 9 Nordeste 0 -- -- 77
2019-08-17 04:00:00 20 2 Norte 9 Sudeste 0 -- -- 68
2019-08-17 03:00:00 20.2 4 Este 12 Este 0 -- -- 69
2019-08-17 02:00:00 21.9 2 Noroeste 26 Sur 0 -- -- 58
2019-08-17 01:00:00 23.3 20 Sur 33 Sudeste 0 -- -- 51
2019-08-17 00:00:00 20.1 3 Sur 12 Sur 0 -- -- 41
2019-08-16 23:00:00 20.5 2 Sudoeste 3 Sudoeste 0 -- -- 41
2019-08-16 22:00:00 22.2 0 Calma 2 Sudoeste 0 -- -- 36
2019-08-16 21:00:00 28.5 0 Calma 19 Oeste 0 -- -- 26
2019-08-16 20:00:00 33 11 Noroeste 26 Noroeste 0 -- -- 20
2019-08-16 19:00:00 33.8 12 Noroeste 28 Oeste 0 -- -- 19
2019-08-16 18:00:00 34.1 11 Noroeste 28 Oeste 0 -- -- 21
2019-08-16 17:00:00 34.2 11 Oeste 27 Oeste 0 -- -- 21
2019-08-16 16:00:00 33.5 9 Noroeste 31 Sudoeste 0 -- -- 24
2019-08-16 15:00:00 32.6 12 Sur 26 Sur 0 -- -- 27
2019-08-16 14:00:00 30.7 11 Sur 23 Sudoeste 0 -- -- 33
2019-08-16 13:00:00 29.5 12 Sur 24 Sudoeste 0 -- -- 33
2019-08-16 12:00:00 27.8 13 Sur 23 Sur 0 -- -- 36
2019-08-16 11:00:00 25.4 13 Sur 23 Sur 0 -- -- 43
2019-08-16 10:00:00 22.6 16 Sudeste 29 Sudeste 0 -- -- 52
2019-08-16 09:00:00 20.6 10 Sudeste 20 Sudeste 0 -- -- 60
2019-08-16 08:00:00 18.5 4 Sudeste 23 Sudeste 0 -- -- 66
2019-08-16 07:00:00 18.5 4 Sudeste 22 Sudeste 0 -- -- 68
2019-08-16 06:00:00 19.5 12 Sudeste 26 Sudeste 0 -- -- 64
2019-08-16 05:00:00 19.9 12 Sudeste 23 Sudeste 0 -- -- 66
2019-08-16 04:00:00 19.9 8 Sudeste 20 Sudeste 0 -- -- 68
2019-08-16 03:00:00 19.6 5 Sudeste 17 Sudeste 0 -- -- 71
2019-08-16 02:00:00 20.5 14 Sudeste 35 Sudeste 0 -- -- 69
2019-08-16 01:00:00 21.4 17 Sudeste 35 Sudeste 0 -- -- 67
2019-08-16 00:00:00 21.9 22 Sudeste 33 Sudeste 0 -- -- 56
2019-08-15 23:00:00 19.9 3 Sudoeste 5 Sudoeste 0 -- -- 38
2019-08-15 22:00:00 22.1 5 Sudoeste 9 Sudoeste 0 -- -- 33
2019-08-15 21:00:00 27.3 3 Oeste 12 Noroeste 0 -- -- 25
2019-08-15 20:00:00 32.5 6 Noroeste 23 Norte 0 -- -- 20
2019-08-15 19:00:00 33.6 10 Norte 24 Noroeste 0 -- -- 19
2019-08-15 18:00:00 34.4 9 Noroeste 25 Noroeste 0 -- -- 18
2019-08-15 17:00:00 34.1 6 Sudoeste 25 Oeste 0 -- -- 18
2019-08-15 16:00:00 33.4 8 Noroeste 23 Noroeste 0 -- -- 19
2019-08-15 15:00:00 32.9 11 Noroeste 26 Oeste 0 -- -- 19
2019-08-15 14:00:00 32 11 Oeste 23 Oeste 0 -- -- 21
2019-08-15 13:00:00 31.2 6 Sudoeste 15 Sudoeste 0 -- -- 26
2019-08-15 12:00:00 29.5 4 Oeste 15 Oeste 0 -- -- 30
2019-08-15 11:00:00 27.3 5 Oeste 13 Oeste 0 -- -- 35
2019-08-15 10:00:00 24.2 5 Norte 7 Norte 0 -- -- 44
2019-08-15 09:00:00 18.9 0 Calma 5 Sudeste 0 -- -- 64
2019-08-15 08:00:00 14.2 5 Sudeste 8 Sudeste 0 -- -- 77
2019-08-15 07:00:00 14.9 0 Calma 7 Este 0 -- -- 70
2019-08-15 06:00:00 16.7 0 Calma 10 Este 0 -- -- 67
2019-08-15 05:00:00 18.9 10 Sudeste 19 Este 0 -- -- 61
2019-08-15 04:00:00 17.5 5 Sudeste 18 Sur 0 -- -- 42
2019-08-15 03:00:00 15.6 2 Sudoeste 3 Sudoeste 0 -- -- 43
2019-08-15 02:00:00 15.6 2 Sudoeste 4 Sudoeste 0 -- -- 44
2019-08-15 01:00:00 16.3 0 Calma 4 Sudoeste 0 -- -- 42
2019-08-15 00:00:00 16.8 0 Calma 3 Sudoeste 0 -- -- 41
2019-08-14 23:00:00 17.6 0 Calma 5 Sudoeste 0 -- -- 39
2019-08-14 22:00:00 21.2 0 Calma 7 Oeste 0 -- -- 34
2019-08-14 21:00:00 26.8 5 Oeste 17 Norte 0 -- -- 25
2019-08-14 20:00:00 30.4 6 Noroeste 19 Noroeste 0 -- -- 21
2019-08-14 19:00:00 31.6 5 Noroeste 21 Noroeste 0 -- -- 20
2019-08-14 18:00:00 31.5 10 Noroeste 30 Noroeste 0 -- -- 21
2019-08-14 17:00:00 31.7 10 Noroeste 23 Noroeste 0 -- -- 21
2019-08-14 16:00:00 30.8 6 Noroeste 23 Oeste 0 -- -- 24
2019-08-14 15:00:00 29.8 9 Oeste 27 Sudoeste 0 -- -- 25
2019-08-14 14:00:00 28.6 12 Noroeste 24 Noroeste 0 -- -- 27
2019-08-14 13:00:00 27.8 7 Noroeste 19 Noroeste 0 -- -- 34
2019-08-14 12:00:00 25.7 6 Noroeste 14 Oeste 0 -- -- 36
2019-08-14 11:00:00 23.8 5 Sudoeste 13 Sudoeste 0 -- -- 55
2019-08-14 10:00:00 20.7 4 Este 10 Sudeste 0 -- -- 72
2019-08-14 09:00:00 16.1 3 Este 9 Sudeste 0 -- -- 97
2019-08-14 08:00:00 12.7 0 Calma 3 Este 0 -- -- 95
2019-08-14 07:00:00 13.6 0 Calma 7 Sudeste 0 -- -- 93
2019-08-14 06:00:00 15.2 4 Sudeste 13 Sudeste 0 -- -- 93
2019-08-14 05:00:00 14.9 3 Este 9 Este 0 -- -- 90
2019-08-14 04:00:00 16 3 Este 9 Este 0 -- -- 90
2019-08-14 03:00:00 16 0 Calma 10 Nordeste 0 -- -- 84
2019-08-14 02:00:00 16.8 0 Calma 17 Sudeste 0 -- -- 72
2019-08-14 01:00:00 16.9 7 Sudeste 16 Este 0 -- -- 59
2019-08-14 00:00:00 13.8 2 Sur 3 Sur 0 -- -- 46
2019-08-13 23:00:00 14.8 2 Sudoeste 3 Sudoeste 0 -- -- 44
2019-08-13 22:00:00 17.5 2 Sudoeste 5 Noroeste 0 -- -- 38
2019-08-13 21:00:00 23.9 5 Noroeste 18 Noroeste 0 -- -- 29
2019-08-13 20:00:00 27.5 7 Norte 26 Noroeste 0 -- -- 25
2019-08-13 19:00:00 28.3 9 Noroeste 26 Noroeste 0 -- -- 25
2019-08-13 18:00:00 28.8 13 Noroeste 24 Oeste 0 -- -- 27
2019-08-13 17:00:00 29.2 8 Noroeste 25 Noroeste 0 -- -- 27
2019-08-13 16:00:00 28.3 10 Noroeste 28 Noroeste 0 -- -- 28
2019-08-13 15:00:00 27 7 Sudoeste 21 Sudoeste 0 -- -- 33
2019-08-13 14:00:00 25.3 8 Noroeste 19 Oeste 0 -- -- 41
2019-08-13 13:00:00 24.1 9 Sur 22 Sur 0 -- -- 45
2019-08-13 12:00:00 22.8 9 Sur 22 Sur 0 -- -- 52
2019-08-13 11:00:00 20.7 12 Sudeste 26 Sur 0 -- -- 58
2019-08-13 10:00:00 19.9 12 Sudeste 23 Sudeste 0 -- -- 56
2019-08-13 09:00:00 17.1 6 Sudeste 14 Sudeste 0 -- -- 59
2019-08-13 08:00:00 15.7 2 Nordeste 20 Sudeste 0 -- -- 60
2019-08-13 07:00:00 15.2 11 Sudeste 24 Este 0 -- -- 61
2019-08-13 06:00:00 15.6 9 Este 18 Este 0 -- -- 57
2019-08-13 05:00:00 15.6 5 Sudeste 22 Sudeste 0 -- -- 55
2019-08-13 04:00:00 15.1 11 Sudeste 24 Sudeste 0 -- -- 54
2019-08-13 03:00:00 15 8 Sudeste 26 Sudeste 0 -- -- 52
2019-08-13 02:00:00 16.2 14 Sudeste 30 Sudeste 0 -- -- 47
2019-08-13 01:00:00 17.2 17 Sudeste 32 Sudeste 0 -- -- 44
2019-08-13 00:00:00 18 13 Sudeste 22 Este 0 -- -- 40
2019-08-12 23:00:00 17.8 6 Nordeste 20 Noroeste 0 -- -- 38
2019-08-12 22:00:00 19.7 4 Norte 15 Norte 0 -- -- 28
2019-08-12 21:00:00 22.6 10 Norte 24 Noroeste 0 -- -- 23
2019-08-12 20:00:00 26.2 12 Noroeste 27 Noroeste 0 -- -- 20
2019-08-12 19:00:00 27 15 Noroeste 30 Noroeste 0 -- -- 19
2019-08-12 18:00:00 28.1 14 Noroeste 30 Noroeste 0 -- -- 18
2019-08-12 17:00:00 28.1 10 Noroeste 27 Noroeste 0 -- -- 19
2019-08-12 16:00:00 27.2 11 Noroeste 27 Noroeste 0 -- -- 22
2019-08-12 15:00:00 26.6 15 Noroeste 29 Noroeste 0 -- -- 23
2019-08-12 14:00:00 25.7 11 Norte 27 Norte 0 -- -- 26
2019-08-12 13:00:00 24.5 12 Norte 33 Norte 0 -- -- 29
2019-08-12 12:00:00 22.7 15 Norte 31 Norte 0 -- -- 34
2019-08-12 11:00:00 20.8 17 Norte 33 Nordeste 0 -- -- 40
2019-08-12 10:00:00 18.5 15 Norte 31 Norte 0 -- -- 50
2019-08-12 09:00:00 15.9 15 Norte 27 Norte 0 -- -- 58
2019-08-12 08:00:00 14.7 7 Norte 17 Nordeste 0 -- -- 60
2019-08-12 07:00:00 15.2 9 Norte 22 Norte 0 -- -- 57
2019-08-12 06:00:00 15.2 3 Norte 12 Norte 0 -- -- 60
2019-08-12 05:00:00 15.1 4 Norte 9 Norte 0 -- -- 53
2019-08-12 04:00:00 13.1 5 Noroeste 10 Noroeste 0 -- -- 51
2019-08-12 03:00:00 13.3 0 Calma 4 Nordeste 0 -- -- 46
2019-08-12 02:00:00 14.5 0 Calma 3 Oeste 0 -- -- 43
2019-08-12 01:00:00 15.6 0 Calma 5 Noroeste 0 -- -- 37
2019-08-12 00:00:00 18 0 Calma 9 Noroeste 0 -- -- 26
2019-08-11 23:00:00 16.7 4 Noroeste 9 Noroeste 0 -- -- 25
2019-08-11 22:00:00 22 4 Noroeste 18 Noroeste 0 -- -- 22
2019-08-11 21:00:00 24.5 7 Noroeste 21 Noroeste 0 -- -- 29
2019-08-11 20:00:00 26.4 13 Oeste 27 Noroeste 0 -- -- 24
2019-08-11 19:00:00 29 18 Oeste 32 Oeste 0 -- -- 20
2019-08-11 18:00:00 30 14 Noroeste 29 Oeste 0 -- -- 18
2019-08-11 17:00:00 30.5 10 Oeste 35 Noroeste 0 -- -- 20
2019-08-11 16:00:00 29.3 17 Noroeste 39 Noroeste 0 -- -- 22
2019-08-11 15:00:00 29 14 Oeste 32 Oeste 0 -- -- 24
2019-08-11 14:00:00 28.2 14 Noroeste 31 Noroeste 0 -- -- 23
2019-08-11 13:00:00 27.6 14 Noroeste 36 Oeste 0 -- -- 25
2019-08-11 12:00:00 27.1 11 Oeste 25 Noroeste 0 -- -- 27
2019-08-11 11:00:00 25.7 9 Oeste 17 Oeste 0 -- -- 29
2019-08-11 10:00:00 23.3 5 Norte 10 Norte 0 -- -- 39
2019-08-11 09:00:00 19 0 Calma 8 Oeste 0 -- -- 51
2019-08-11 08:00:00 16.6 3 Noroeste 9 Noroeste 0 -- -- 72
2019-08-11 07:00:00 15.4 0 Calma 11 Sur 0 -- -- 88
2019-08-11 06:00:00 15.5 0 Calma 7 Sur 0 -- -- 89
2019-08-11 05:00:00 17.7 0 Calma 14 Sur 0 -- -- 82
2019-08-11 04:00:00 19.2 7 Sur 19 Sudeste 0 -- -- 78
2019-08-11 03:00:00 20.8 13 Sur 20 Sur 0 -- -- 73
2019-08-11 02:00:00 21.6 15 Sur 19 Sur 0 -- -- 55
2019-08-11 01:00:00 18.4 4 Sudeste 5 Noroeste 0 -- -- 54
2019-08-11 00:00:00 20.7 5 Sudoeste 9 Sudoeste 0 -- -- 48
2019-08-10 23:00:00 21.3 6 Sur 8 Sur 0 -- -- 46
2019-08-10 22:00:00 22.5 6 Sur 8 Sur 0 -- -- 43
2019-08-10 21:00:00 27.9 4 Oeste 19 Oeste 0 -- -- 33
2019-08-10 20:00:00 30.5 10 Oeste 23 Oeste 0 -- -- 29
2019-08-10 19:00:00 31 11 Sudoeste 30 Sudoeste 0 -- -- 30
2019-08-10 18:00:00 31 15 Sur 33 Sur 0 -- -- 32
2019-08-10 17:00:00 31.7 13 Oeste 27 Oeste 0 -- -- 31
2019-08-10 16:00:00 31.1 9 Sudoeste 30 Sur 0 -- -- 34
2019-08-10 15:00:00 30.3 9 Sudoeste 28 Sur 0 -- -- 34
2019-08-10 14:00:00 29.2 9 Sudoeste 25 Oeste 0 -- -- 39
2019-08-10 13:00:00 28.2 10 Noroeste 24 Noroeste 0 -- -- 42
2019-08-10 12:00:00 26.9 9 Oeste 23 Oeste 0 -- -- 46
2019-08-10 11:00:00 25.3 6 Oeste 15 Oeste 0 -- -- 49
2019-08-10 10:00:00 22.7 4 Norte 9 Noroeste 0 -- -- 61
2019-08-10 09:00:00 18.9 0 Calma 4 Sudeste 0 -- -- 73
2019-08-10 08:00:00 15.2 2 Sudeste 3 Sudeste 0 -- -- 96
2019-08-10 07:00:00 13.9 0 Calma 3 Sudeste 0 -- -- 92
2019-08-10 06:00:00 14.7 0 Calma 3 Noroeste 0 -- -- 89
2019-08-10 05:00:00 16.5 0 Calma 10 Noroeste 0 -- -- 84
2019-08-10 04:00:00 17.8 0 Calma 8 Noroeste 0 -- -- 77
2019-08-10 03:00:00 17.6 3 Noroeste 6 Noroeste 0 -- -- 85
2019-08-10 02:00:00 18.9 3 Oeste 7 Oeste 0 -- -- 79
2019-08-10 01:00:00 21.8 3 Noroeste 21 Noroeste 0 -- -- 70
2019-08-10 00:00:00 23 10 Noroeste 23 Noroeste 0 -- -- 66
2019-08-09 23:00:00 24.4 14 Noroeste 24 Noroeste 0 -- -- 56
2019-08-09 22:00:00 26.1 12 Noroeste 26 Noroeste 0 -- -- 49
2019-08-09 21:00:00 28 14 Noroeste 29 Oeste 0 -- -- 38
2019-08-09 20:00:00 30.8 16 Noroeste 40 Oeste 0 -- -- 33
2019-08-09 19:00:00 31.9 13 Oeste 37 Oeste 0 -- -- 31
2019-08-09 18:00:00 32.6 12 Noroeste 30 Noroeste 0 -- -- 30
2019-08-09 17:00:00 32.4 16 Oeste 32 Noroeste 0 -- -- 32
2019-08-09 16:00:00 31.7 16 Oeste 33 Oeste 0 -- -- 31
2019-08-09 15:00:00 31.1 12 Noroeste 30 Oeste 0 -- -- 34
2019-08-09 14:00:00 29.8 15 Oeste 35 Noroeste 0 -- -- 36
2019-08-09 13:00:00 28.9 14 Noroeste 32 Oeste 0 -- -- 35
2019-08-09 12:00:00 28.1 11 Oeste 29 Sudoeste 0 -- -- 37
2019-08-09 11:00:00 26.3 11 Oeste 22 Noroeste 0 -- -- 45
2019-08-09 10:00:00 23.6 5 Noroeste 13 Oeste 0 -- -- 55
2019-08-09 09:00:00 19.7 3 Noroeste 7 Norte 0 -- -- 64
2019-08-09 08:00:00 15.7 0 Calma 6 Oeste 0 -- -- 73
2019-08-09 07:00:00 15.6 3 Oeste 8 Sudoeste 0 -- -- 71
2019-08-09 06:00:00 15.9 5 Sur 7 Sudoeste 0 -- -- 67
2019-08-09 05:00:00 15 3 Sur 5 Sudeste 0 -- -- 66
2019-08-09 04:00:00 17 0 Calma 9 Sudoeste 0 -- -- 58
2019-08-09 03:00:00 16.6 0 Calma 3 Sudoeste 0 -- -- 62
2019-08-09 02:00:00 17.5 0 Calma 3 Sudoeste 0 -- -- 58
2019-08-09 01:00:00 18.4 2 Sudoeste 3 Sudoeste 0 -- -- 54
2019-08-09 00:00:00 19.7 0 Calma 10 Oeste 0 -- -- 49
2019-08-08 23:00:00 24.2 2 Oeste 11 Sudoeste 0 -- -- 39
2019-08-08 22:00:00 25.8 5 Sudoeste 14 Sur 0 -- -- 36
2019-08-08 21:00:00 28.8 3 Sudoeste 21 Oeste 0 -- -- 31
2019-08-08 20:00:00 31.5 9 Sudoeste 24 Oeste 0 -- -- 28
2019-08-08 19:00:00 32.3 12 Oeste 28 Noroeste 0 -- -- 28
2019-08-08 18:00:00 32.5 12 Sudoeste 30 Sudoeste 0 -- -- 28
2019-08-08 17:00:00 32.2 9 Sudoeste 30 Noroeste 0 -- -- 30
2019-08-08 16:00:00 31.8 13 Oeste 30 Noroeste 0 -- -- 30
2019-08-08 15:00:00 30.9 12 Oeste 29 Oeste 0 -- -- 33
2019-08-08 14:00:00 29.7 10 Oeste 23 Oeste 0 -- -- 34
2019-08-08 13:00:00 28.8 10 Sudoeste 21 Oeste 0 -- -- 36
2019-08-08 12:00:00 27.7 8 Oeste 18 Sudoeste 0 -- -- 34
2019-08-08 11:00:00 25.2 6 Noroeste 16 Noroeste 0 -- -- 45
2019-08-08 10:00:00 22.3 3 Noroeste 8 Noroeste 0 -- -- 55
2019-08-08 09:00:00 18.5 0 Calma 3 Este 0 -- -- 66
2019-08-08 08:00:00 13.5 0 Calma 3 Noroeste 0 -- -- 82
2019-08-08 07:00:00 13.6 0 Calma 5 Oeste 0 -- -- 78
2019-08-08 06:00:00 13.9 0 Calma 6 Oeste 0 -- -- 77
2019-08-08 05:00:00 13.6 0 Calma 4 Noroeste 0 -- -- 76
2019-08-08 04:00:00 15.6 0 Calma 9 Noroeste 0 -- -- 63
2019-08-08 03:00:00 16.4 4 Noroeste 8 Oeste 0 -- -- 65
2019-08-08 02:00:00 14.6 0 Calma 4 Oeste 0 -- -- 69
2019-08-08 01:00:00 15.7 2 Sur 7 Noroeste 0 -- -- 63
2019-08-08 00:00:00 18.3 0 Calma 8 Noroeste 0 -- -- 54
2019-08-07 23:00:00 22.1 4 Noroeste 18 Oeste 0 -- -- 45
2019-08-07 22:00:00 23.4 7 Noroeste 20 Noroeste 0 -- -- 43
2019-08-07 21:00:00 24.3 9 Noroeste 21 Noroeste 0 -- -- 42
2019-08-07 20:00:00 25.3 10 Noroeste 26 Oeste 0 -- -- 38
2019-08-07 19:00:00 26.7 7 Noroeste 20 Noroeste 0 -- -- 32
2019-08-07 18:00:00 27.5 10 Norte 35 Noroeste 0 -- -- 31
2019-08-07 17:00:00 27.4 14 Noroeste 31 Noroeste 0 -- -- 31
2019-08-07 16:00:00 28.9 12 Noroeste 30 Noroeste 0 -- -- 28
2019-08-07 15:00:00 29.4 16 Noroeste 29 Noroeste 0 -- -- 28
2019-08-07 14:00:00 28.2 14 Noroeste 27 Noroeste 0 -- -- 29
2019-08-07 13:00:00 27 10 Noroeste 21 Noroeste 0 -- -- 30
2019-08-07 12:00:00 26.2 9 Noroeste 22 Oeste 0 -- -- 32
2019-08-07 11:00:00 25.1 10 Oeste 22 Oeste 0 -- -- 35
2019-08-07 10:00:00 21.9 7 Oeste 15 Oeste 0 -- -- 41
2019-08-07 09:00:00 19.6 0 Calma 5 Norte 0 -- -- 43
2019-08-07 08:00:00 15.8 2 Oeste 11 Noroeste 0 -- -- 50
2019-08-07 07:00:00 15.6 2 Sudoeste 6 Oeste 0 -- -- 46
2019-08-07 06:00:00 15.6 3 Oeste 8 Noroeste 0 -- -- 46
2019-08-07 05:00:00 19.2 3 Norte 8 Sur 0 -- -- 39
2019-08-07 04:00:00 17.9 4 Sudoeste 7 Oeste 0 -- -- 44
2019-08-07 03:00:00 16.2 2 Sudoeste 3 Sudoeste 0 -- -- 46
2019-08-07 02:00:00 17.1 0 Calma 5 Noroeste 0 -- -- 42
2019-08-07 01:00:00 17.9 0 Calma 7 Noroeste 0 -- -- 35
2019-08-07 00:00:00 19 0 Calma 7 Noroeste 0 -- -- 28
2019-08-06 23:00:00 22.5 0 Calma 13 Sudoeste 0 -- -- 22
2019-08-06 22:00:00 24.7 6 Sur 13 Sur 0 -- -- 17
2019-08-06 21:00:00 28.8 9 Sudoeste 22 Sudoeste 0 -- -- 14
2019-08-06 20:00:00 32 10 Sudoeste 25 Sudoeste 0 -- -- 13
2019-08-06 19:00:00 33.2 12 Sudoeste 39 Sudoeste 0 -- -- 13
2019-08-06 18:00:00 34.1 15 Sudoeste 30 Sudoeste 0 -- -- 14
2019-08-06 17:00:00 34.5 13 Sudoeste 28 Sudoeste 0 -- -- 15
2019-08-06 16:00:00 33.7 12 Oeste 27 Noroeste 0 -- -- 13
2019-08-06 15:00:00 33.4 13 Oeste 32 Noroeste 0 -- -- 13
2019-08-06 14:00:00 32.6 7 Sudoeste 26 Oeste 0 -- -- 17
2019-08-06 13:00:00 31.7 12 Sudoeste 24 Sudoeste 0 -- -- 18
2019-08-06 12:00:00 30.5 8 Sudoeste 19 Sudoeste 0 -- -- 19
2019-08-06 11:00:00 28.2 6 Oeste 15 Noroeste 0 -- -- 26
2019-08-06 10:00:00 25.1 4 Oeste 11 Sudoeste 0 -- -- 37
2019-08-06 09:00:00 19.6 0 Calma 3 Norte 0 -- -- 80
2019-08-06 08:00:00 16.5 0 Calma 8 Sur 0 -- -- 94
2019-08-06 07:00:00 14.2 0 Calma 5 Noroeste 0 -- -- 92
2019-08-06 06:00:00 14.9 0 Calma 3 Norte 0 -- -- 87
2019-08-06 05:00:00 17.2 0 Calma 9 Este 0 -- -- 80
2019-08-06 04:00:00 19.8 4 Este 11 Sudeste 0 -- -- 75
2019-08-06 03:00:00 18.8 0 Calma 16 Sur 0 -- -- 68
2019-08-06 02:00:00 22.4 10 Sur 20 Sur 0 -- -- 62
2019-08-06 01:00:00 23.3 14 Sur 20 Sur 0 -- -- 30
2019-08-06 00:00:00 20.8 6 Sur 9 Sur 0 -- -- 29
2019-08-05 23:00:00 19.4 3 Sur 5 Sudeste 0 -- -- 31
2019-08-05 22:00:00 21.8 3 Sudoeste 5 Sudoeste 0 -- -- 27
2019-08-05 21:00:00 29.6 4 Oeste 17 Oeste 0 -- -- 17
2019-08-05 20:00:00 33.7 9 Oeste 23 Oeste 0 -- -- 15
2019-08-05 19:00:00 34.5 9 Noroeste 23 Oeste 0 -- -- 15
2019-08-05 18:00:00 34.8 11 Oeste 25 Oeste 0 -- -- 14
2019-08-05 17:00:00 34.7 10 Oeste 30 Noroeste 0 -- -- 18
2019-08-05 16:00:00 34.1 11 Oeste 27 Sudoeste 0 -- -- 18
2019-08-05 15:00:00 33.7 10 Sudoeste 23 Sudoeste 0 -- -- 20
2019-08-05 14:00:00 32.9 11 Sudoeste 21 Sudoeste 0 -- -- 21
2019-08-05 13:00:00 32.2 5 Sudoeste 18 Sudoeste 0 -- -- 24
2019-08-05 12:00:00 30.3 5 Sur 10 Noroeste 0 -- -- 33
2019-08-05 11:00:00 28.3 4 Sudoeste 9 Sudoeste 0 -- -- 38
2019-08-05 10:00:00 24.9 0 Calma 5 Nordeste 0 -- -- 49
2019-08-05 09:00:00 19.3 0 Calma 4 Norte 0 -- -- 78
2019-08-05 08:00:00 14.7 2 Sur 4 Sur 0 -- -- 92
2019-08-05 07:00:00 14.1 0 Calma 3 Sudoeste 0 -- -- 87
2019-08-05 06:00:00 15.4 0 Calma 3 Este 0 -- -- 83
2019-08-05 05:00:00 18 3 Este 10 Nordeste 0 -- -- 76
2019-08-05 04:00:00 19.3 0 Calma 10 Sur 0 -- -- 68
2019-08-05 03:00:00 21.4 4 Sudeste 24 Sur 0 -- -- 60
2019-08-05 02:00:00 22.9 16 Sur 24 Sur 0 -- -- 50
2019-08-05 01:00:00 17.7 0 Calma 4 Sudoeste 0 -- -- 34
2019-08-05 00:00:00 18.3 0 Calma 4 Sudoeste 0 -- -- 36
2019-08-04 23:00:00 20.3 0 Calma 8 Sudoeste 0 -- -- 32
2019-08-04 22:00:00 23.8 4 Sudoeste 10 Oeste 0 -- -- 28
2019-08-04 21:00:00 30 6 Oeste 15 Oeste 0 -- -- 21
2019-08-04 20:00:00 33.2 8 Oeste 23 Noroeste 0 -- -- 20
2019-08-04 19:00:00 34.6 6 Noroeste 24 Oeste 0 -- -- 19
2019-08-04 18:00:00 34.4 11 Oeste 26 Noroeste 0 -- -- 17
2019-08-04 17:00:00 34.4 10 Sudoeste 29 Noroeste 0 -- -- 17
2019-08-04 16:00:00 34.1 14 Sudoeste 29 Sudoeste 0 -- -- 18
2019-08-04 15:00:00 33.8 12 Oeste 28 Noroeste 0 -- -- 20
2019-08-04 14:00:00 33 9 Sudoeste 26 Oeste 0 -- -- 22
2019-08-04 13:00:00 31.9 6 Noroeste 23 Noroeste 0 -- -- 22
2019-08-04 12:00:00 30.2 9 Oeste 17 Noroeste 0 -- -- 26
2019-08-04 11:00:00 28.5 4 Noroeste 10 Noroeste 0 -- -- 36
2019-08-04 10:00:00 24.7 0 Calma 12 Este 0 -- -- 53
2019-08-04 09:00:00 20.1 8 Sudeste 12 Este 0 -- -- 76
2019-08-04 08:00:00 15.3 0 Calma 5 Sudeste 0 -- -- 92
2019-08-04 07:00:00 15.9 2 Noroeste 7 Este 0 -- -- 86
2019-08-04 06:00:00 18.2 2 Nordeste 14 Sudeste 0 -- -- 78
2019-08-04 05:00:00 18.5 6 Este 10 Este 0 -- -- 80
2019-08-04 04:00:00 18.5 2 Sudeste 9 Este 0 -- -- 74
2019-08-04 03:00:00 21 3 Este 23 Sur 0 -- -- 66
2019-08-04 02:00:00 22.1 14 Sur 22 Sudeste 0 -- -- 62
2019-08-04 01:00:00 23.2 16 Sur 34 Sur 0 -- -- 55
2019-08-04 00:00:00 20.8 6 Sur 15 Sur 0 -- -- 31
2019-08-03 23:00:00 21.8 5 Sur 10 Sur 0 -- -- 30
2019-08-03 22:00:00 23.3 7 Sur 14 Sur 0 -- -- 27
2019-08-03 21:00:00 29.2 7 Sudoeste 18 Sur 0 -- -- 20
2019-08-03 20:00:00 32.3 12 Sudoeste 26 Sur 0 -- -- 17
2019-08-03 19:00:00 34.1 12 Oeste 26 Oeste 0 -- -- 16
2019-08-03 18:00:00 34.3 10 Oeste 27 Sudoeste 0 -- -- 18
2019-08-03 17:00:00 34.2 13 Sudoeste 32 Sudoeste 0 -- -- 18
2019-08-03 16:00:00 33.9 13 Sudoeste 31 Sudoeste 0 -- -- 20
2019-08-03 15:00:00 33.5 7 Sudoeste 22 Sur 0 -- -- 20
2019-08-03 14:00:00 31.8 8 Sur 22 Sudoeste 0 -- -- 26
2019-08-03 13:00:00 29.9 10 Sur 24 Sur 0 -- -- 32
2019-08-03 12:00:00 28.3 12 Sur 27 Sur 0 -- -- 35
2019-08-03 11:00:00 26.2 13 Sudeste 28 Sur 0 -- -- 43
2019-08-03 10:00:00 24.2 12 Sudeste 22 Este 0 -- -- 50
2019-08-03 09:00:00 21.3 8 Sudeste 19 Sudeste 0 -- -- 55
2019-08-03 08:00:00 18.6 5 Este 14 Este 0 -- -- 62
2019-08-03 07:00:00 18.2 5 Este 17 Sudeste 0 -- -- 62
2019-08-03 06:00:00 18.9 7 Sudeste 19 Sudeste 0 -- -- 59
2019-08-03 05:00:00 19.6 11 Sudeste 26 Sudeste 0 -- -- 57
2019-08-03 04:00:00 20 14 Sudeste 24 Sudeste 0 -- -- 57
2019-08-03 03:00:00 20.7 14 Sudeste 27 Sudeste 0 -- -- 57
2019-08-03 02:00:00 21.3 21 Sudeste 29 Sudeste 0 -- -- 57
2019-08-03 01:00:00 22.2 17 Sudeste 27 Sudeste 0 -- -- 55
2019-08-03 00:00:00 22.7 21 Sur 29 Sur 0 -- -- 43
2019-08-02 23:00:00 19.4 2 Sur 3 Sur 0 -- -- 33
2019-08-02 22:00:00 21.9 2 Sudoeste 4 Oeste 0 -- -- 30
2019-08-02 21:00:00 28.4 3 Oeste 15 Oeste 0 -- -- 22
2019-08-02 20:00:00 33.4 4 Sudoeste 17 Oeste 0 -- -- 18
2019-08-02 19:00:00 33.8 8 Oeste 22 Norte 0 -- -- 17
2019-08-02 18:00:00 33.9 11 Oeste 26 Noroeste 0 -- -- 17
2019-08-02 17:00:00 33.7 11 Sudoeste 26 Noroeste 0 -- -- 18
2019-08-02 16:00:00 33.4 12 Sudoeste 27 Oeste 0 -- -- 18
2019-08-02 15:00:00 32.8 10 Sudoeste 27 Noroeste 0 -- -- 19
2019-08-02 14:00:00 31.6 9 Noroeste 24 Noroeste 0 -- -- 21
2019-08-02 13:00:00 30.7 8 Oeste 23 Sudoeste 0 -- -- 22
2019-08-02 12:00:00 29.8 5 Oeste 17 Oeste 0 -- -- 33
2019-08-02 11:00:00 26.2 6 Oeste 12 Oeste 0 -- -- 45
2019-08-02 10:00:00 23.5 6 Sur 17 Sur 0 -- -- 53
2019-08-02 09:00:00 19.6 3 Sur 10 Sudoeste 0 -- -- 71
2019-08-02 08:00:00 14.7 3 Noroeste 6 Norte 0 -- -- 65
2019-08-02 07:00:00 13.3 2 Noroeste 5 Noroeste 0 -- -- 70
2019-08-02 06:00:00 13.6 0 Calma 3 Este 0 -- -- 62
2019-08-02 05:00:00 15.4 0 Calma 6 Sudeste 0 -- -- 50
2019-08-02 04:00:00 16.3 3 Sur 8 Sudoeste 0 -- -- 45
2019-08-02 03:00:00 15.6 0 Calma 3 Sudoeste 0 -- -- 44
2019-08-02 02:00:00 16.4 2 Sudoeste 4 Sudoeste 0 -- -- 42
2019-08-02 01:00:00 16.9 0 Calma 3 Sur 0 -- -- 41
2019-08-02 00:00:00 17.3 0 Calma 4 Sudoeste 0 -- -- 42
2019-08-01 23:00:00 19.6 0 Calma 5 Oeste 0 -- -- 38
2019-08-01 22:00:00 24.2 4 Oeste 14 Oeste 0 -- -- 28
2019-08-01 21:00:00 29.1 9 Oeste 21 Noroeste 0 -- -- 20
2019-08-01 20:00:00 32.1 7 Oeste 21 Noroeste 0 -- -- 22
2019-08-01 19:00:00 32.6 10 Noroeste 23 Oeste 0 -- -- 21
2019-08-01 18:00:00 32.7 10 Oeste 25 Oeste 0 -- -- 24
2019-08-01 17:00:00 32.4 11 Sudoeste 27 Oeste 0 -- -- 24
2019-08-01 16:00:00 31.6 12 Noroeste 26 Noroeste 0 -- -- 28
2019-08-01 15:00:00 30.8 8 Oeste 23 Sur 0 -- -- 31
2019-08-01 14:00:00 28.8 7 Sudoeste 25 Sudoeste 0 -- -- 41
2019-08-01 13:00:00 27.2 9 Sur 21 Sur 0 -- -- 45
2019-08-01 12:00:00 25.3 12 Sur 24 Sur 0 -- -- 50
2019-08-01 11:00:00 23.5 12 Sur 22 Sudeste 0 -- -- 55
2019-08-01 10:00:00 20.7 13 Sudeste 24 Sudeste 0 -- -- 65
2019-08-01 09:00:00 17.4 15 Sudeste 30 Sudeste 0 -- -- 77
2019-08-01 08:00:00 15.5 14 Sudeste 25 Sudeste 0 -- -- 86
2019-08-01 07:00:00 15.6 14 Sudeste 24 Sudeste 0 -- -- 83
2019-08-01 06:00:00 16 11 Sudeste 31 Sudeste 0 -- -- 82
2019-08-01 05:00:00 16.4 15 Sudeste 31 Este 0 -- -- 79
2019-08-01 04:00:00 16.9 18 Sudeste 33 Sudeste 0 -- -- 77
2019-08-01 03:00:00 17 21 Sudeste 34 Sudeste 0 -- -- 78
2019-08-01 02:00:00 17.3 20 Sudeste 39 Sudeste 0 -- -- 81
2019-08-01 01:00:00 18.1 23 Sudeste 41 Sudeste 0 -- -- 79
2019-08-01 00:00:00 19.3 19 Sudeste 33 Sudeste 0 -- -- 76
2019-07-31 23:00:00 20.6 20 Sudeste 35 Sudeste 0 -- -- 72
2019-07-31 22:00:00 21.8 17 Sudeste 28 Sudeste 0 -- -- 66
2019-07-31 21:00:00 23.5 14 Sudeste 34 Este 0 -- -- 60
2019-07-31 20:00:00 25.5 16 Sudeste 35 Sudeste 0 -- -- 54
2019-07-31 19:00:00 26.7 23 Sudeste 39 Sudeste 0 -- -- 49
2019-07-31 18:00:00 28.1 23 Sudeste 36 Sudeste 0 -- -- 44
2019-07-31 17:00:00 28.4 24 Sur 37 Sur 0 -- -- 39
2019-07-31 16:00:00 28.2 23 Sur 40 Sur 0 -- -- 40
2019-07-31 15:00:00 27.6 27 Sur 42 Sur 0 -- -- 41
2019-07-31 14:00:00 26.7 20 Sudeste 42 Sudeste 0 -- -- 44
2019-07-31 13:00:00 26.3 23 Sur 39 Sudeste 0 -- -- 41
2019-07-31 12:00:00 24.6 24 Sudeste 45 Sudeste 0 -- -- 49
2019-07-31 11:00:00 22.9 28 Sudeste 45 Sudeste 0 -- -- 56
2019-07-31 10:00:00 21.7 22 Sudeste 34 Sudeste 0 -- -- 59
2019-07-31 09:00:00 18.6 15 Sudeste 35 Sudeste 0 -- -- 72
2019-07-31 08:00:00 16.6 20 Sudeste 43 Sudeste 0 -- -- 82
2019-07-31 07:00:00 16.4 21 Sudeste 41 Sudeste 0 -- -- 82
2019-07-31 06:00:00 16.8 22 Sudeste 38 Sudeste 0 -- -- 76
2019-07-31 05:00:00 17.9 19 Sudeste 31 Sudeste 0 -- -- 64
2019-07-31 04:00:00 18.4 15 Sudeste 33 Sudeste 0 -- -- 66
2019-07-31 03:00:00 18.9 16 Sudeste 32 Sudeste 0 -- -- 69
2019-07-31 02:00:00 19.7 18 Sudeste 30 Sudeste 0 -- -- 66
2019-07-31 01:00:00 20.3 18 Sudeste 30 Sudeste 0 -- -- 71
2019-07-31 00:00:00 21.3 13 Sudeste 24 Sudeste 0 -- -- 59
2019-07-30 23:00:00 20.6 9 Sudeste 19 Sudeste 0 -- -- 30
2019-07-30 22:00:00 19.7 0 Calma 9 Noroeste 0 -- -- 29
2019-07-30 21:00:00 27.1 5 Noroeste 12 Noroeste 0 -- -- 21
2019-07-30 20:00:00 30.6 7 Noroeste 17 Noroeste 0 -- -- 18
2019-07-30 19:00:00 31.5 7 Oeste 20 Sur 0 -- -- 17
2019-07-30 18:00:00 32 5 Noroeste 22 Noroeste 0 -- -- 19
2019-07-30 17:00:00 31.4 8 Noroeste 22 Norte 0 -- -- 19
2019-07-30 16:00:00 30.6 8 Oeste 22 Noroeste 0 -- -- 20
2019-07-30 15:00:00 29.6 12 Noroeste 27 Noroeste 0 -- -- 22
2019-07-30 14:00:00 29 11 Noroeste 29 Sudoeste 0 -- -- 23
2019-07-30 13:00:00 28.7 5 Sudeste 20 Sudoeste 0 -- -- 26
2019-07-30 12:00:00 26.6 8 Norte 17 Noroeste 0 -- -- 28
2019-07-30 11:00:00 24.4 3 Noroeste 13 Norte 0 -- -- 32
2019-07-30 10:00:00 21.3 6 Norte 12 Norte 0 -- -- 38
2019-07-30 09:00:00 17.6 6 Norte 13 Norte 0 -- -- 43
2019-07-30 08:00:00 13.5 0 Calma 7 Sur 0 -- -- 52
2019-07-30 07:00:00 14.3 2 Este 12 Norte 0 -- -- 45
2019-07-30 06:00:00 15.4 4 Norte 12 Norte 0 -- -- 42
2019-07-30 05:00:00 14 2 Sudeste 8 Norte 0 -- -- 46
2019-07-30 04:00:00 14.8 3 Norte 10 Norte 0 -- -- 46
2019-07-30 03:00:00 13 0 Calma 3 Sur 0 -- -- 51
2019-07-30 02:00:00 14.3 0 Calma 3 Sudoeste 0 -- -- 46
2019-07-30 01:00:00 17 0 Calma 10 Oeste 0 -- -- 40
2019-07-30 00:00:00 17.3 2 Noroeste 6 Oeste 0 -- -- 40
2019-07-29 23:00:00 19.4 4 Oeste 9 Noroeste 0 -- -- 32
2019-07-29 22:00:00 22.4 3 Oeste 15 Noroeste 0 -- -- 27
2019-07-29 21:00:00 27.4 10 Noroeste 28 Noroeste 0 -- -- 21
2019-07-29 20:00:00 30.8 10 Oeste 33 Oeste 0 -- -- 21
2019-07-29 19:00:00 31.4 10 Oeste 33 Oeste 0 -- -- 22
2019-07-29 18:00:00 29.9 12 Sudoeste 26 Sudoeste 0 -- -- 26
2019-07-29 17:00:00 31.1 9 Oeste 32 Noroeste 0 -- -- 26
2019-07-29 16:00:00 30.3 11 Oeste 27 Oeste 0 -- -- 26
2019-07-29 15:00:00 29.6 10 Oeste 32 Sudoeste 0 -- -- 27
2019-07-29 14:00:00 28.6 13 Noroeste 26 Oeste 0 -- -- 30
2019-07-29 13:00:00 28.3 12 Sudoeste 29 Sur 0 -- -- 31
2019-07-29 12:00:00 27.3 8 Sudoeste 21 Sudoeste 0 -- -- 33
2019-07-29 11:00:00 25.1 8 Sur 15 Sur 0 -- -- 37
2019-07-29 10:00:00 22.5 9 Sur 15 Sur 0 -- -- 46
2019-07-29 09:00:00 19.3 5 Este 12 Sudeste 0 -- -- 55
2019-07-29 08:00:00 12.8 0 Calma 4 Sudeste 0 -- -- 70
2019-07-29 07:00:00 11.7 0 Calma 3 Sudoeste 0 -- -- 72
2019-07-29 06:00:00 11.9 0 Calma 3 Sur 0 -- -- 64
2019-07-29 05:00:00 12.7 2 Noroeste 3 Norte 0 -- -- 58
2019-07-29 04:00:00 14.6 0 Calma 7 Sudoeste 0 -- -- 49
2019-07-29 03:00:00 13.9 4 Sur 8 Sudoeste 0 -- -- 48
2019-07-29 02:00:00 14.5 0 Calma 4 Sudoeste 0 -- -- 47
2019-07-29 01:00:00 14.2 2 Sudoeste 4 Sudoeste 0 -- -- 46
2019-07-29 00:00:00 14.4 2 Sudoeste 4 Sur 0 -- -- 48
2019-07-28 23:00:00 15.9 0 Calma 4 Oeste 0 -- -- 44
2019-07-28 22:00:00 20.5 3 Oeste 13 Noroeste 0 -- -- 34
2019-07-28 21:00:00 25 8 Oeste 18 Noroeste 0 -- -- 28
2019-07-28 20:00:00 27.9 11 Oeste 23 Oeste 0 -- -- 25
2019-07-28 19:00:00 28.7 7 Sudoeste 24 Oeste 0 -- -- 22
2019-07-28 18:00:00 29 9 Oeste 29 Oeste 0 -- -- 23
2019-07-28 17:00:00 28.8 13 Noroeste 24 Noroeste 0 -- -- 24
2019-07-28 16:00:00 27.7 9 Noroeste 25 Noroeste 0 -- -- 23
2019-07-28 15:00:00 26.5 8 Noroeste 23 Norte 0 -- -- 26
2019-07-28 14:00:00 25.4 12 Norte 27 Noroeste 0 -- -- 29
2019-07-28 13:00:00 24.1 11 Norte 27 Norte 0 -- -- 31
2019-07-28 12:00:00 22.8 15 Norte 26 Noroeste 0 -- -- 32
2019-07-28 11:00:00 21.3 10 Norte 20 Noroeste 0 -- -- 37
2019-07-28 10:00:00 18.8 4 Norte 12 Noroeste 0 -- -- 45
2019-07-28 09:00:00 14.2 3 Sudeste 7 Nordeste 0 -- -- 65
2019-07-28 08:00:00 10.2 0 Calma 5 Sur 0 -- -- 81
2019-07-28 07:00:00 10.8 2 Sudeste 12 Norte 0 -- -- 75
2019-07-28 06:00:00 12 7 Norte 18 Nordeste 0 -- -- 75
2019-07-28 05:00:00 9.6 0 Calma 4 Sur 0 -- -- 81
2019-07-28 04:00:00 11.8 2 Norte 8 Norte 0 -- -- 73
2019-07-28 03:00:00 14.7 0 Calma 9 Noroeste 0 -- -- 63
2019-07-28 02:00:00 16.3 5 Norte 12 Norte 0 -- -- 61
2019-07-28 01:00:00 17.1 6 Norte 25 Norte 0 -- -- 57
2019-07-28 00:00:00 17.3 3 Norte 17 Noroeste 0 -- -- 45
2019-07-27 23:00:00 18.7 9 Noroeste 22 Noroeste 0 -- -- 41
2019-07-26 12:00:00 -- -- -- -- -- -- -- -- --
2019-07-26 11:00:00 -- -- -- -- -- -- -- -- --
2019-07-26 10:00:00 -- -- -- -- -- -- -- -- --
2019-07-26 09:00:00 -- -- -- -- -- -- -- -- --
2019-07-26 08:00:00 18.6 8 Sudeste 11 Sudeste 0 -- -- 61
2019-07-26 07:00:00 18.3 2 Sudeste 7 Sudeste 0 -- -- 66
2019-07-26 06:00:00 18.7 0 Calma 7 Sudeste 0 -- -- 62
2019-07-26 05:00:00 19.9 5 Sudeste 19 Sudeste 0 -- -- 56
2019-07-26 04:00:00 20.5 12 Sudeste 20 Sudeste 0 -- -- 54
2019-07-26 03:00:00 20.1 10 Sur 16 Sudeste 0.2 -- -- 57
2019-07-26 02:00:00 19.8 7 Sur 17 Sur 0 -- -- 60
2019-07-26 01:00:00 20.4 9 Sudeste 14 Sur 0.2 -- -- 54
2019-07-26 00:00:00 22.5 5 Sudeste 19 Noroeste 0 -- -- 63